createdAt,value
2022-07-29T00:01:19.499Z,101905.13
2022-07-29T00:03:47.998Z,101935.38
2022-07-29T00:06:16.340Z,101935.50
2022-07-29T00:08:44.378Z,101933.75
2022-07-29T00:11:13.750Z,101933.75
2022-07-29T00:13:41.881Z,101927.63
2022-07-29T00:16:09.962Z,101930.41
2022-07-29T00:18:37.962Z,101925.16
2022-07-29T00:21:05.887Z,101927.84
2022-07-29T00:23:36.839Z,101923.53
2022-07-29T00:26:05.098Z,101921.72
2022-07-29T00:28:34.731Z,101920.72
2022-07-29T00:31:02.727Z,101923.53
2022-07-29T00:33:31.205Z,101919.97
2022-07-29T00:35:58.153Z,101923.53
2022-07-29T00:38:26.122Z,101918.28
2022-07-29T00:40:54.161Z,101916.53
2022-07-29T00:43:22.137Z,101912.09
2022-07-29T00:45:51.488Z,101917.41
2022-07-29T00:48:19.557Z,101913.09
2022-07-29T00:50:47.622Z,101917.63
2022-07-29T00:53:15.561Z,101913.09
2022-07-29T00:55:43.509Z,101914.06
2022-07-29T00:58:14.201Z,101914.06
2022-07-29T01:00:42.739Z,101910.63
2022-07-29T01:03:15.225Z,101912.31
2022-07-29T01:05:50.710Z,101914.19
2022-07-29T01:08:20.728Z,101902.22
2022-07-29T01:10:49.182Z,101918.78
2022-07-29T01:13:18.117Z,101912.56
2022-07-29T01:15:49.986Z,101910.72
2022-07-29T01:18:26.254Z,101916.97
2022-07-29T01:21:17.933Z,101919.78
2022-07-29T01:24:01.474Z,101922.47
2022-07-29T01:26:47.683Z,101921.72
2022-07-29T01:29:35.801Z,101914.50
2022-07-29T01:32:21.547Z,101916.34
2022-07-29T01:35:00.679Z,101910.09
2022-07-29T01:37:34.959Z,101914.50
2022-07-29T01:40:06.724Z,101912.78
2022-07-29T01:42:38.923Z,101913.66
2022-07-29T01:45:16.484Z,101915.47
2022-07-29T01:47:47.417Z,101913.66
2022-07-29T01:50:19.744Z,101915.47
2022-07-29T01:52:58.172Z,101910.09
2022-07-29T01:55:30.838Z,101919.13
2022-07-29T01:58:00.993Z,101923.56
2022-07-29T02:00:33.546Z,101925.38
2022-07-29T02:03:04.793Z,101923.66
2022-07-29T02:05:34.729Z,101918.50
2022-07-29T02:08:04.123Z,101905.53
2022-07-29T02:10:35.135Z,101919.25
2022-07-29T02:13:06.617Z,101915.69
2022-07-29T02:15:37.634Z,101923.78
2022-07-29T02:18:10.415Z,101918.38
2022-07-29T02:20:39.878Z,101881.50
2022-07-29T02:23:11.427Z,101922.03
2022-07-29T02:25:39.827Z,101928.41
2022-07-29T02:28:09.647Z,101925.72
2022-07-29T02:30:44.080Z,101924.72
2022-07-29T02:33:16.330Z,101930.97
2022-07-29T02:35:46.877Z,101923.91
2022-07-29T02:38:33.813Z,101918.50
2022-07-29T02:41:05.382Z,101922.91
2022-07-29T02:43:34.916Z,101923.03
2022-07-29T02:46:28.014Z,101906.72
2022-07-29T02:49:01.713Z,101922.03
2022-07-29T02:51:43.332Z,101927.41
2022-07-29T02:54:17.728Z,101929.28
2022-07-29T02:56:47.958Z,101931.97
2022-07-29T02:59:20.273Z,101932.81
2022-07-29T03:01:51.029Z,101932.81
2022-07-29T03:04:21.706Z,101930.13
2022-07-29T03:06:52.855Z,101936.38
2022-07-29T03:09:21.917Z,101945.31
2022-07-29T03:11:51.039Z,101948.97
2022-07-29T03:14:21.674Z,101942.75
2022-07-29T03:16:52.914Z,101943.59
2022-07-29T03:19:22.560Z,101939.19
2022-07-29T03:21:51.119Z,101957.91
2022-07-29T03:24:30.706Z,101944.44
2022-07-29T03:26:59.346Z,101951.66
2022-07-29T03:29:33.461Z,101942.63
2022-07-29T03:32:07.259Z,101946.41
2022-07-29T03:34:36.985Z,101960.53
2022-07-29T03:37:05.284Z,101940.34
2022-07-29T03:39:38.821Z,101961.06
2022-07-29T03:42:08.929Z,101962.75
2022-07-29T03:44:38.315Z,101963.41
2022-07-29T03:47:10.295Z,101957.81
2022-07-29T03:49:39.857Z,101958.44
2022-07-29T03:52:08.364Z,101958.44
2022-07-29T03:54:36.458Z,101957.16
2022-07-29T03:57:05.648Z,101947.97
2022-07-29T03:59:35.993Z,101950.38
2022-07-29T04:02:05.525Z,101955.44
2022-07-29T04:04:37.122Z,101961.44
2022-07-29T04:07:05.751Z,101960.47
2022-07-29T04:09:33.894Z,101926.63
2022-07-29T04:12:04.073Z,101961.66
2022-07-29T04:14:33.268Z,101939.88
2022-07-29T04:17:01.631Z,101964.66
2022-07-29T04:19:29.732Z,101967.09
2022-07-29T04:21:59.436Z,101961.44
2022-07-29T04:24:27.803Z,101968.44
2022-07-29T04:26:56.199Z,101969.06
2022-07-29T04:29:24.180Z,101957.31
2022-07-29T04:31:52.245Z,101961.41
2022-07-29T04:34:21.147Z,101963.66
2022-07-29T04:36:49.279Z,101969.66
2022-07-29T04:39:23.005Z,101966.66
2022-07-29T04:41:52.527Z,101970.81
2022-07-29T04:44:28.802Z,101971.47
2022-07-29T04:46:58.111Z,101968.41
2022-07-29T04:49:26.539Z,101968.19
2022-07-29T04:51:54.628Z,101967.97
2022-07-29T04:54:24.291Z,101961.81
2022-07-29T04:56:53.525Z,101972.78
2022-07-29T04:59:21.541Z,101971.69
2022-07-29T05:01:49.658Z,101967.78
2022-07-29T05:04:17.954Z,101973.91
2022-07-29T05:06:46.149Z,101961.19
2022-07-29T05:09:14.051Z,101970.03
2022-07-29T05:11:43.523Z,101961.72
2022-07-29T05:14:11.464Z,101967.13
2022-07-29T05:16:41.062Z,101967.72
2022-07-29T05:19:13.829Z,101970.34
2022-07-29T05:21:42.284Z,101972.03
2022-07-29T05:24:10.354Z,101969.09
2022-07-29T05:26:38.260Z,101974.41
2022-07-29T05:29:07.697Z,101974.16
2022-07-29T05:31:55.679Z,101980.56
2022-07-29T05:34:23.617Z,101978.59
2022-07-29T05:36:51.948Z,101989.25
2022-07-29T05:39:19.922Z,101990.13
2022-07-29T05:41:51.839Z,101985.34
2022-07-29T05:44:21.561Z,101995.19
2022-07-29T05:46:53.370Z,101962.00
2022-07-29T05:49:27.345Z,101989.66
2022-07-29T05:51:55.731Z,101983.31
2022-07-29T05:54:23.717Z,101986.84
2022-07-29T05:56:51.881Z,101986.72
2022-07-29T05:59:21.180Z,101988.34
2022-07-29T06:01:49.343Z,101988.34
2022-07-29T06:04:17.809Z,101992.75
2022-07-29T06:06:46.397Z,101990.81
2022-07-29T06:09:14.879Z,101988.94
2022-07-29T06:11:43.179Z,101989.81
2022-07-29T06:14:11.176Z,101988.09
2022-07-29T06:16:40.738Z,101992.50
2022-07-29T06:19:08.820Z,101988.84
2022-07-29T06:21:38.593Z,101994.25
2022-07-29T06:24:10.404Z,101991.13
2022-07-29T06:26:40.015Z,101995.22
2022-07-29T06:29:08.413Z,101998.53
2022-07-29T06:31:36.513Z,102001.38
2022-07-29T06:34:05.958Z,102005.69
2022-07-29T06:36:37.911Z,102010.00
2022-07-29T06:39:08.416Z,101968.75
2022-07-29T06:41:36.969Z,102015.38
2022-07-29T06:44:10.970Z,102016.22
2022-07-29T06:46:39.017Z,102013.41
2022-07-29T06:49:08.696Z,102019.56
2022-07-29T06:51:37.021Z,102005.69
2022-07-29T06:54:06.586Z,101978.00
2022-07-29T06:56:38.668Z,102020.28
2022-07-29T06:59:09.880Z,102026.44
2022-07-29T07:01:39.021Z,102017.38
2022-07-29T07:04:09.758Z,102016.41
2022-07-29T07:06:38.745Z,102019.97
2022-07-29T07:09:06.845Z,102022.66
2022-07-29T07:11:35.145Z,102018.00
2022-07-29T07:14:04.231Z,102021.56
2022-07-29T07:16:33.290Z,102020.56
2022-07-29T07:19:01.526Z,102018.59
2022-07-29T07:21:31.430Z,102007.69
2022-07-29T07:24:00.043Z,102013.09
2022-07-29T07:26:28.116Z,102015.66
2022-07-29T07:28:56.142Z,102008.44
2022-07-29T07:31:24.167Z,102003.91
2022-07-29T07:33:52.695Z,102007.34
2022-07-29T07:36:20.779Z,102009.16
2022-07-29T07:38:50.167Z,101991.25
2022-07-29T07:41:18.173Z,102005.38
2022-07-29T07:43:46.155Z,102003.53
2022-07-29T07:46:14.184Z,102004.41
2022-07-29T07:48:42.326Z,101993.59
2022-07-29T07:51:10.440Z,101989.94
2022-07-29T07:53:38.539Z,101998.06
2022-07-29T07:56:10.906Z,101994.34
2022-07-29T07:58:39.564Z,101986.34
2022-07-29T08:01:07.757Z,101995.34
2022-07-29T08:03:35.774Z,101992.66
2022-07-29T08:06:04.831Z,101997.16
2022-07-29T08:08:32.954Z,101995.34
2022-07-29T08:11:08.304Z,101981.28
2022-07-29T08:13:39.465Z,101995.34
2022-07-29T08:16:13.914Z,101996.19
2022-07-29T08:18:43.197Z,101997.16
2022-07-29T08:21:11.349Z,101990.78
2022-07-29T08:23:51.446Z,101991.75
2022-07-29T08:26:23.665Z,101999.88
2022-07-29T08:28:53.021Z,101989.94
2022-07-29T08:31:21.011Z,102002.56
2022-07-29T08:33:48.957Z,101900.44
2022-07-29T08:36:16.932Z,101997.16
2022-07-29T08:38:44.873Z,102000.75
2022-07-29T08:41:12.959Z,102004.41
2022-07-29T08:43:42.819Z,101999.00
2022-07-29T08:46:12.505Z,102003.53
2022-07-29T08:48:41.311Z,102005.38
2022-07-29T08:51:10.488Z,101960.50
2022-07-29T08:53:39.128Z,102002.91
2022-07-29T08:56:07.951Z,101994.41
2022-07-29T08:58:37.163Z,101962.56
2022-07-29T09:01:07.672Z,102006.84
2022-07-29T09:03:42.506Z,102008.56
2022-07-29T09:06:10.773Z,102004.00
2022-07-29T09:08:38.785Z,102010.25
2022-07-29T09:11:08.384Z,101987.66
2022-07-29T09:13:36.940Z,101965.91
2022-07-29T09:16:09.386Z,101995.56
2022-07-29T09:18:39.524Z,101996.28
2022-07-29T09:21:28.466Z,101999.66
2022-07-29T09:24:08.836Z,101999.66
2022-07-29T09:26:38.422Z,101994.25
2022-07-29T09:29:13.604Z,101987.97
2022-07-29T09:31:43.631Z,101998.91
2022-07-29T09:34:13.048Z,101992.66
2022-07-29T09:36:44.586Z,101995.34
2022-07-29T09:39:13.041Z,101997.06
2022-07-29T09:41:48.718Z,101990.69
2022-07-29T09:44:16.826Z,101993.38
2022-07-29T09:46:59.146Z,101982.34
2022-07-29T09:49:27.775Z,101976.06
2022-07-29T09:52:06.496Z,101986.66
2022-07-29T09:54:37.821Z,101983.81
2022-07-29T09:57:07.607Z,101942.47
2022-07-29T09:59:35.734Z,101982.69
2022-07-29T10:02:13.128Z,101987.25
2022-07-29T10:04:41.877Z,101974.97
2022-07-29T10:07:11.614Z,101980.88
2022-07-29T10:09:39.662Z,101987.25
2022-07-29T10:12:10.145Z,101984.53
2022-07-29T10:14:39.213Z,101976.81
2022-07-29T10:17:08.485Z,101977.44
2022-07-29T10:19:37.989Z,101981.84
2022-07-29T10:22:08.334Z,101972.50
2022-07-29T10:24:39.389Z,101962.13
2022-07-29T10:27:10.420Z,101976.56
2022-07-29T10:29:38.591Z,101983.06
2022-07-29T10:32:37.083Z,101978.63
2022-07-29T10:35:21.075Z,101981.25
2022-07-29T10:38:06.403Z,101979.50
2022-07-29T10:41:06.750Z,101960.09
2022-07-29T10:43:43.046Z,101975.84
2022-07-29T10:46:13.652Z,101977.44
2022-07-29T10:49:11.783Z,101886.81
2022-07-29T10:51:58.524Z,101966.25
2022-07-29T10:54:52.021Z,101973.38
2022-07-29T10:57:53.100Z,101961.47
2022-07-29T11:00:34.682Z,101964.03
2022-07-29T11:03:04.566Z,101968.34
2022-07-29T11:05:54.652Z,101962.81
2022-07-29T11:08:28.273Z,101959.84
2022-07-29T11:11:36.624Z,101952.63
2022-07-29T11:14:10.334Z,101958.03
2022-07-29T11:17:06.452Z,101956.91
2022-07-29T11:19:36.279Z,101956.91
2022-07-29T11:22:04.760Z,101953.09
2022-07-29T11:24:35.262Z,101958.41
2022-07-29T11:30:08.679Z,101949.19
2022-07-29T11:32:39.877Z,101946.50
2022-07-29T11:35:37.454Z,101943.66
2022-07-29T11:38:29.363Z,101944.63
2022-07-29T11:41:22.546Z,101944.50
2022-07-29T11:43:53.210Z,101952.63
2022-07-29T11:46:48.068Z,101945.25
2022-07-29T11:49:31.641Z,101934.81
2022-07-29T11:52:10.970Z,101946.09
2022-07-29T11:54:57.996Z,101948.56
2022-07-29T11:57:36.346Z,101915.25
2022-07-29T12:00:12.242Z,101951.13
2022-07-29T12:02:48.181Z,101926.06
2022-07-29T12:05:36.558Z,101944.75
2022-07-29T12:07:01.386Z,101954.69
2022-07-29T12:08:12.755Z,101937.38
2022-07-29T12:10:44.159Z,101943.66
2022-07-29T12:13:12.596Z,101939.09
2022-07-29T12:15:47.104Z,101948.19
2022-07-29T12:18:24.202Z,101937.22
2022-07-29T12:21:03.361Z,101941.66
2022-07-29T12:23:34.417Z,101931.81
2022-07-29T12:26:07.505Z,101928.00
2022-07-29T12:28:40.354Z,101916.84
2022-07-29T12:31:15.030Z,101928.00
2022-07-29T12:34:04.514Z,101920.75
2022-07-29T12:36:33.001Z,101919.78
2022-07-29T12:39:01.179Z,101915.25
2022-07-29T12:41:30.177Z,101911.53
2022-07-29T12:43:58.470Z,101915.97
2022-07-29T12:46:26.593Z,101915.84
2022-07-29T12:48:57.508Z,101922.13
2022-07-29T12:51:32.975Z,101920.13
2022-07-29T12:54:07.904Z,101912.88
2022-07-29T12:56:44.729Z,101916.47
2022-07-29T12:59:15.221Z,101912.78
2022-07-29T13:01:43.335Z,101909.06
2022-07-29T13:04:11.551Z,101912.78
2022-07-29T13:06:42.724Z,101916.31
2022-07-29T13:09:15.709Z,101919.03
2022-07-29T13:11:48.611Z,101812.69
2022-07-29T13:14:32.635Z,101909.06
2022-07-29T13:17:06.782Z,101907.22
2022-07-29T13:19:37.441Z,101908.13
2022-07-29T13:22:07.341Z,101909.00
2022-07-29T13:24:35.736Z,101909.81
2022-07-29T13:27:05.708Z,101880.44
2022-07-29T13:29:34.159Z,101908.84
2022-07-29T13:32:02.204Z,101906.00
2022-07-29T13:34:30.129Z,101897.91
2022-07-29T13:36:58.161Z,101873.81
2022-07-29T13:39:27.481Z,101896.94
2022-07-29T13:41:56.316Z,101897.78
2022-07-29T13:44:25.785Z,101895.94
2022-07-29T13:46:53.860Z,101888.66
2022-07-29T13:49:21.969Z,101888.56
2022-07-29T13:51:50.897Z,101885.00
2022-07-29T13:54:19.281Z,101855.22
2022-07-29T13:56:48.722Z,101881.06
2022-07-29T13:59:16.756Z,101854.97
2022-07-29T14:01:45.528Z,101877.50
2022-07-29T14:04:14.858Z,101871.06
2022-07-29T14:06:43.230Z,101817.69
2022-07-29T14:09:11.622Z,101865.66
2022-07-29T14:11:39.800Z,101858.81
2022-07-29T14:14:09.341Z,101819.00
2022-07-29T14:16:42.558Z,101859.13
2022-07-29T14:19:12.127Z,101868.25
2022-07-29T14:21:40.105Z,101878.06
2022-07-29T14:24:17.863Z,101865.41
2022-07-29T14:26:49.680Z,101867.25
2022-07-29T14:29:19.121Z,101867.13
2022-07-29T14:31:47.186Z,101871.69
2022-07-29T14:34:16.508Z,101868.84
2022-07-29T14:36:44.460Z,101872.41
2022-07-29T14:39:12.703Z,101869.69
2022-07-29T14:41:40.768Z,101864.53
2022-07-29T14:44:08.726Z,101867.00
2022-07-29T14:46:38.061Z,101866.13
2022-07-29T14:49:06.719Z,101860.00
2022-07-29T14:51:37.562Z,101861.47
2022-07-29T14:54:05.857Z,101858.78
2022-07-29T14:56:36.897Z,101857.78
2022-07-29T14:59:05.196Z,101855.94
2022-07-29T15:01:33.186Z,101858.50
2022-07-29T15:04:02.625Z,101856.53
2022-07-29T15:06:30.593Z,101853.84
2022-07-29T15:08:58.591Z,101828.66
2022-07-29T15:11:26.554Z,101857.38
2022-07-29T15:13:54.550Z,101851.97
2022-07-29T15:16:23.291Z,101844.59
2022-07-29T15:18:51.613Z,101844.59
2022-07-29T15:21:21.086Z,101843.59
2022-07-29T15:23:49.194Z,101840.88
2022-07-29T15:26:17.281Z,101842.63
2022-07-29T15:28:45.245Z,101836.47
2022-07-29T15:31:13.969Z,101830.22
2022-07-29T15:33:42.108Z,101838.44
2022-07-29T15:36:11.706Z,101836.72
2022-07-29T15:38:41.860Z,101831.31
2022-07-29T15:41:10.405Z,101833.16
2022-07-29T15:43:38.375Z,101830.47
2022-07-29T15:46:23.809Z,101835.88
2022-07-29T15:48:51.953Z,101833.41
2022-07-29T15:51:20.084Z,101827.91
2022-07-29T15:53:53.551Z,101826.03
2022-07-29T15:56:21.855Z,101828.72
2022-07-29T15:58:49.992Z,101818.78
2022-07-29T16:01:18.001Z,101822.47
2022-07-29T16:03:46.486Z,101819.78
2022-07-29T16:06:14.731Z,101823.31
2022-07-29T16:08:42.996Z,101819.88
2022-07-29T16:11:12.351Z,101821.47
2022-07-29T16:13:40.499Z,101821.47
2022-07-29T16:16:08.909Z,101816.06
2022-07-29T16:18:36.940Z,101809.69
2022-07-29T16:21:05.031Z,101813.25
2022-07-29T16:23:33.340Z,101815.94
2022-07-29T16:26:01.678Z,101816.78
2022-07-29T16:28:31.659Z,101805.84
2022-07-29T16:30:59.782Z,101806.72
2022-07-29T16:33:28.367Z,101805.84
2022-07-29T16:36:18.505Z,101798.84
2022-07-29T16:38:47.602Z,101802.28
2022-07-29T16:41:15.754Z,101796.88
2022-07-29T16:43:45.213Z,101794.31
2022-07-29T16:46:18.414Z,101791.34
2022-07-29T16:48:47.583Z,101790.47
2022-07-29T16:51:16.665Z,101787.78
2022-07-29T16:53:44.971Z,101789.47
2022-07-29T16:56:13.231Z,101782.38
2022-07-29T16:58:43.882Z,101787.53
2022-07-29T17:01:13.624Z,101782.94
2022-07-29T17:04:01.760Z,101782.09
2022-07-29T17:06:29.964Z,101785.78
2022-07-29T17:08:58.130Z,101786.66
2022-07-29T17:11:51.949Z,101781.09
2022-07-29T17:14:14.150Z,101784.81
2022-07-29T17:16:43.594Z,101761.38
2022-07-29T17:19:27.247Z,101786.41
2022-07-29T17:22:03.333Z,101784.53
2022-07-29T17:24:35.037Z,101780.84
2022-07-29T17:27:03.158Z,101782.69
2022-07-29T17:29:31.282Z,101785.28
2022-07-29T17:32:00.632Z,101787.84
2022-07-29T17:34:28.585Z,101779.72
2022-07-29T17:36:58.029Z,101761.50
2022-07-29T17:39:26.121Z,101791.41
2022-07-29T17:41:54.131Z,101793.09
2022-07-29T17:44:22.129Z,101794.84
2022-07-29T17:46:50.172Z,101793.09
2022-07-29T17:49:21.205Z,101795.97
2022-07-29T17:51:49.201Z,101793.97
2022-07-29T17:54:17.274Z,101792.13
2022-07-29T17:56:45.343Z,101785.84
2022-07-29T17:59:14.427Z,101785.84
2022-07-29T18:01:42.484Z,101788.56
2022-07-29T18:04:11.368Z,101793.09
2022-07-29T18:06:40.743Z,101784.53
2022-07-29T18:09:08.720Z,101790.41
2022-07-29T18:11:36.794Z,101794.97
2022-07-29T18:14:07.041Z,101790.53
2022-07-29T18:16:35.075Z,101792.38
2022-07-29T18:19:03.107Z,101790.53
2022-07-29T18:21:50.992Z,101790.69
2022-07-29T18:24:20.541Z,101793.50
2022-07-29T18:26:48.499Z,101799.78
2022-07-29T18:29:16.541Z,101780.31
2022-07-29T18:31:44.545Z,101801.88
2022-07-29T18:34:12.566Z,101805.44
2022-07-29T18:36:40.509Z,101811.72
2022-07-29T18:39:08.529Z,101805.44
2022-07-29T18:41:49.960Z,101776.28
2022-07-29T18:44:19.157Z,101807.28
2022-07-29T18:46:48.002Z,101805.44
2022-07-29T18:49:16.243Z,101803.75
2022-07-29T18:51:44.510Z,101803.75
2022-07-29T18:54:12.510Z,101807.59
2022-07-29T18:56:42.101Z,101811.13
2022-07-29T18:59:10.649Z,101801.31
2022-07-29T19:01:39.096Z,101801.41
2022-07-29T19:04:07.433Z,101808.66
2022-07-29T19:06:35.488Z,101807.94
2022-07-29T19:09:03.553Z,101804.25
2022-07-29T19:11:31.630Z,101803.41
2022-07-29T19:14:01.238Z,101801.69
2022-07-29T19:16:29.447Z,101806.50
2022-07-29T19:18:57.955Z,101812.78
2022-07-29T19:21:26.006Z,101804.66
2022-07-29T19:24:00.421Z,101808.34
2022-07-29T19:26:39.326Z,101810.19
2022-07-29T19:29:08.726Z,101815.59
2022-07-29T19:31:36.734Z,101808.50
2022-07-29T19:34:04.881Z,101815.75
2022-07-29T19:36:32.931Z,101815.84
2022-07-29T19:39:01.098Z,101811.56
2022-07-29T19:41:29.518Z,101817.72
2022-07-29T19:43:57.686Z,101784.44
2022-07-29T19:46:29.096Z,101806.56
2022-07-29T19:48:57.646Z,101797.25
2022-07-29T19:51:25.762Z,101810.97
2022-07-29T19:53:53.850Z,101815.63
2022-07-29T19:56:21.807Z,101814.81
2022-07-29T19:58:52.118Z,101817.50
2022-07-29T20:01:21.037Z,101811.22
2022-07-29T20:03:50.498Z,101827.47
2022-07-29T20:06:18.509Z,101820.31
2022-07-29T20:08:46.585Z,101819.59
2022-07-29T20:11:14.565Z,101823.16
2022-07-29T20:13:42.589Z,101812.34
2022-07-29T20:16:10.559Z,101816.03
2022-07-29T20:18:38.723Z,101809.75
2022-07-29T20:21:08.080Z,101820.56
2022-07-29T20:23:36.093Z,101815.28
2022-07-29T20:26:08.671Z,101810.75
2022-07-29T20:28:40.195Z,101814.41
2022-07-29T20:31:08.771Z,101808.13
2022-07-29T20:33:36.849Z,101809.16
2022-07-29T20:36:05.503Z,101810.00
2022-07-29T20:38:34.849Z,101804.72
2022-07-29T20:41:02.942Z,101808.28
2022-07-29T20:43:31.009Z,101817.38
2022-07-29T20:46:05.002Z,101799.69
2022-07-29T20:48:33.123Z,101808.53
2022-07-29T20:51:01.106Z,101812.22
2022-07-29T20:53:29.298Z,101819.59
2022-07-29T20:55:58.667Z,101821.31
2022-07-29T20:58:26.925Z,101811.72
2022-07-29T21:00:54.986Z,101809.91
2022-07-29T21:03:23.090Z,101809.31
2022-07-29T21:05:51.527Z,101809.31
2022-07-29T21:08:19.772Z,101804.41
2022-07-29T21:10:47.764Z,101815.06
2022-07-29T21:13:17.349Z,101813.50
2022-07-29T21:15:48.545Z,101810.94
2022-07-29T21:18:27.242Z,101812.91
2022-07-29T21:20:55.409Z,101803.22
2022-07-29T21:23:23.398Z,101805.03
2022-07-29T21:25:51.477Z,101809.59
2022-07-29T21:28:30.894Z,101815.97
2022-07-29T21:31:01.493Z,101806.78
2022-07-29T21:33:31.761Z,101811.81
2022-07-29T21:36:42.358Z,101788.63
2022-07-29T21:38:48.464Z,101813.91
2022-07-29T21:41:16.433Z,101805.94
2022-07-29T21:43:46.168Z,101810.47
2022-07-29T21:46:16.507Z,101799.81
2022-07-29T21:48:44.845Z,101807.28
2022-07-29T21:51:12.963Z,101809.25
2022-07-29T21:53:41.013Z,101810.22
2022-07-29T21:56:09.449Z,101814.91
2022-07-29T21:58:43.333Z,101804.50
2022-07-29T22:01:12.760Z,101809.75
2022-07-29T22:03:40.880Z,101803.72
2022-07-29T22:06:08.980Z,101801.16
2022-07-29T22:08:45.613Z,101807.69
2022-07-29T22:11:13.667Z,101766.16
2022-07-29T22:13:41.743Z,101806.09
2022-07-29T22:16:10.258Z,101798.13
2022-07-29T22:18:39.593Z,101802.72
2022-07-29T22:21:07.913Z,101805.56
2022-07-29T22:23:35.914Z,101806.44
2022-07-29T22:26:04.269Z,101800.03
2022-07-29T22:28:32.290Z,101800.91
2022-07-29T22:31:00.333Z,101797.31
2022-07-29T22:33:28.844Z,101799.81
2022-07-29T22:35:58.193Z,101801.53
2022-07-29T22:38:26.266Z,101802.41
2022-07-29T22:40:54.198Z,101803.13
2022-07-29T22:43:28.717Z,101789.72
2022-07-29T22:45:56.816Z,101795.63
2022-07-29T22:48:24.834Z,101794.50
2022-07-29T22:50:52.778Z,101795.28
2022-07-29T22:53:22.317Z,101800.44
2022-07-29T22:55:50.461Z,101795.03
2022-07-29T22:58:18.518Z,101794.03
2022-07-29T23:00:46.464Z,101794.16
2022-07-29T23:03:14.528Z,101794.88
2022-07-29T23:05:42.544Z,101795.75
2022-07-29T23:08:10.545Z,101798.44
2022-07-29T23:10:39.979Z,101799.31
2022-07-29T23:13:09.241Z,101803.00
2022-07-29T23:15:37.314Z,101805.69
2022-07-29T23:18:05.456Z,101805.69
2022-07-29T23:20:33.693Z,101799.44
2022-07-29T23:23:01.817Z,101790.44
2022-07-29T23:25:29.825Z,101800.44
2022-07-29T23:27:59.251Z,101790.44
2022-07-29T23:30:27.730Z,101779.78
2022-07-29T23:32:56.317Z,101794.16
2022-07-29T23:35:24.632Z,101797.84
2022-07-29T23:37:52.621Z,101797.97
2022-07-29T23:40:20.811Z,101798.81
2022-07-29T23:42:48.817Z,101794.41
2022-07-29T23:45:18.379Z,101790.09
2022-07-29T23:47:46.845Z,101797.22
2022-07-29T23:50:16.792Z,101793.69
2022-07-29T23:52:45.214Z,101796.38
2022-07-29T23:55:36.983Z,101790.97
2022-07-29T23:58:03.033Z,101795.75
